Time;durP1;ratioP1;P1;durP2;ratioP2;P2;SDS_P1;SDS_P2;PMS_P1;PMS_P2;Temp;Humidity;BMP_temperature;BMP_pressure;BME280_temperature;BME280_humidity;BME280_pressure;Samples;Min_cycle;Max_cycle;Signal;HPM_P1;HPM_P2
2021/11/11 00:01:31;;;;;;;40.92;28.15;;;9.70;81.70;;;;;;5078673;28;20037;-75
2021/11/11 00:03:57;;;;;;;34.72;25.02;;;9.70;81.60;;;;;;5071808;28;20127;-77
2021/11/11 00:06:23;;;;;;;32.53;23.90;;;9.60;81.50;;;;;;5071663;28;20025;-75
2021/11/11 00:08:50;;;;;;;33.42;25.48;;;9.60;81.60;;;;;;5062328;28;20082;-73
2021/11/11 00:11:15;;;;;;;31.38;23.52;;;9.60;81.60;;;;;;5060242;28;20036;-75
2021/11/11 00:13:41;;;;;;;36.30;26.15;;;9.60;81.80;;;;;;5070967;28;20044;-76
2021/11/11 00:16:07;;;;;;;37.03;25.88;;;9.60;81.90;;;;;;5075510;28;20064;-76
2021/11/11 00:18:32;;;;;;;34.45;25.75;;;9.60;81.80;;;;;;5087331;28;20051;-75
2021/11/11 00:20:58;;;;;;;37.08;26.77;;;9.60;81.80;;;;;;5087949;28;20483;-75
2021/11/11 00:23:24;;;;;;;33.10;24.88;;;9.60;81.50;;;;;;5078518;28;20036;-74
2021/11/11 00:25:49;;;;;;;33.72;25.52;;;9.60;80.90;;;;;;5082921;28;20043;-75
2021/11/11 00:28:15;;;;;;;35.47;25.92;;;9.60;81.10;;;;;;5079489;28;20044;-80
2021/11/11 00:30:41;;;;;;;33.17;24.80;;;9.50;81.10;;;;;;5084507;28;20036;-75
2021/11/11 00:33:07;;;;;;;34.10;25.48;;;9.50;81.20;;;;;;5064208;28;20178;-75
2021/11/11 00:35:33;;;;;;;34.95;26.38;;;9.50;81.20;;;;;;5076793;27;20494;-75
2021/11/11 00:38:00;;;;;;;32.72;24.45;;;9.60;81.10;;;;;;5076931;28;20048;-74
2021/11/11 00:40:31;;;;;;;34.80;25.30;;;9.50;80.90;;;;;;5069655;28;20500;-75
2021/11/11 00:42:58;;;;;;;35.33;25.63;;;9.50;80.90;;;;;;5079038;28;20061;-73
2021/11/11 00:45:24;;;;;;;33.55;24.33;;;9.60;80.50;;;;;;5074076;28;20098;-74
2021/11/11 00:47:50;;;;;;;34.00;25.02;;;9.50;80.40;;;;;;5060837;28;20129;-74
2021/11/11 00:50:19;;;;;;;33.05;25.60;;;9.50;80.20;;;;;;5081325;28;20177;-74
2021/11/11 00:52:45;;;;;;;32.20;22.95;;;9.40;80.30;;;;;;5080684;28;20059;-76
2021/11/11 00:55:10;;;;;;;33.97;23.35;;;9.40;80.30;;;;;;5083479;28;20757;-78
2021/11/11 00:57:36;;;;;;;34.58;24.08;;;9.40;80.20;;;;;;5069561;28;20377;-73
2021/11/11 01:00:06;;;;;;;31.25;24.13;;;9.40;80.20;;;;;;5068196;28;20037;-73
2021/11/11 01:02:34;;;;;;;31.48;22.08;;;9.40;80.40;;;;;;5060766;28;20032;-74
2021/11/11 01:04:59;;;;;;;34.00;23.13;;;9.30;80.30;;;;;;5061780;28;20115;-75
2021/11/11 01:07:25;;;;;;;35.80;24.45;;;9.30;80.40;;;;;;5072657;28;21187;-75
2021/11/11 01:09:51;;;;;;;31.92;23.05;;;9.30;80.20;;;;;;5058506;28;20044;-73
2021/11/11 01:12:17;;;;;;;30.50;22.15;;;9.30;80.30;;;;;;5081624;28;20081;-74
2021/11/11 01:14:42;;;;;;;32.10;22.77;;;9.20;80.40;;;;;;5084915;28;20036;-79
2021/11/11 01:17:08;;;;;;;29.42;22.73;;;9.20;80.50;;;;;;5078442;28;20040;-79
2021/11/11 01:19:34;;;;;;;33.95;23.45;;;9.30;80.40;;;;;;5082459;28;20056;-74
2021/11/11 01:22:00;;;;;;;33.33;23.90;;;9.30;80.60;;;;;;5085522;28;20044;-74
2021/11/11 01:24:26;;;;;;;34.17;24.23;;;9.30;80.70;;;;;;5082365;28;20151;-75
2021/11/11 01:26:52;;;;;;;33.90;23.15;;;9.30;80.60;;;;;;5070735;28;20044;-78
2021/11/11 01:29:18;;;;;;;31.42;23.05;;;9.30;80.60;;;;;;5095371;27;20043;-79
2021/11/11 01:31:44;;;;;;;32.60;22.70;;;9.30;80.60;;;;;;5072151;28;20525;-74
2021/11/11 01:34:10;;;;;;;33.00;24.05;;;9.20;80.50;;;;;;5059712;28;20029;-74
2021/11/11 01:36:36;;;;;;;35.78;23.98;;;9.30;80.70;;;;;;5057157;28;20043;-76
2021/11/11 01:39:03;;;;;;;31.80;22.60;;;9.20;80.40;;;;;;5075140;28;20040;-74
2021/11/11 01:41:29;;;;;;;31.98;23.00;;;9.30;80.30;;;;;;5078375;28;20044;-76
2021/11/11 01:43:54;;;;;;;31.17;23.10;;;9.20;80.30;;;;;;5082621;27;20478;-75
2021/11/11 01:46:20;;;;;;;32.22;23.10;;;9.10;80.20;;;;;;5079068;28;21688;-80
2021/11/11 01:48:46;;;;;;;32.55;22.42;;;9.10;80.20;;;;;;5078574;28;20047;-75
2021/11/11 01:51:11;;;;;;;33.63;23.63;;;9.10;80.20;;;;;;5072010;28;20029;-75
2021/11/11 01:53:37;;;;;;;37.00;24.67;;;9.10;80.30;;;;;;5083178;28;20038;-78
2021/11/11 01:56:03;;;;;;;36.45;22.83;;;9.10;80.40;;;;;;5084193;28;20059;-75
2021/11/11 01:58:29;;;;;;;29.90;22.35;;;9.10;80.40;;;;;;5076811;28;20031;-75
2021/11/11 02:00:57;;;;;;;31.42;22.08;;;9.00;80.20;;;;;;5075160;28;20491;-75
2021/11/11 02:03:23;;;;;;;32.85;22.27;;;9.10;79.90;;;;;;5081316;27;20036;-78
2021/11/11 02:05:50;;;;;;;34.75;23.38;;;9.10;80.00;;;;;;5078578;28;20395;-77
2021/11/11 02:08:17;;;;;;;29.95;22.42;;;9.10;80.20;;;;;;5080130;28;20422;-77
2021/11/11 02:10:44;;;;;;;32.40;23.15;;;9.10;80.00;;;;;;5081910;28;20043;-74
2021/11/11 02:13:10;;;;;;;31.85;23.58;;;9.10;80.10;;;;;;5078979;28;20542;-74
2021/11/11 02:15:37;;;;;;;33.58;22.45;;;9.10;80.30;;;;;;5079378;28;20033;-76
2021/11/11 02:18:06;;;;;;;32.75;23.20;;;9.10;80.20;;;;;;5075746;28;20111;-75
2021/11/11 02:20:35;;;;;;;31.58;22.85;;;9.10;80.20;;;;;;5082529;28;20048;-78
2021/11/11 02:23:03;;;;;;;33.13;24.63;;;9.10;80.30;;;;;;5080510;28;20040;-79
2021/11/11 02:25:29;;;;;;;33.85;22.83;;;9.10;80.40;;;;;;5077514;28;20098;-74
2021/11/11 02:28:01;;;;;;;31.75;23.20;;;9.10;80.40;;;;;;5075324;28;20716;-78
2021/11/11 02:30:28;;;;;;;33.70;23.40;;;9.10;80.30;;;;;;5070658;28;20047;-74
2021/11/11 02:32:54;;;;;;;33.35;23.27;;;9.00;80.40;;;;;;5081168;28;20383;-78
2021/11/11 02:35:21;;;;;;;34.13;24.30;;;9.00;80.50;;;;;;5081524;28;20475;-74
2021/11/11 02:37:47;;;;;;;36.92;24.25;;;9.00;80.50;;;;;;5068214;28;20039;-74
2021/11/11 02:40:25;;;;;;;35.50;24.20;;;9.00;80.60;;;;;;5063500;28;20044;-74
2021/11/11 02:42:52;;;;;;;36.17;24.13;;;8.90;80.60;;;;;;5064526;28;20040;-77
2021/11/11 02:45:27;;;;;;;36.00;25.58;;;9.00;80.70;;;;;;5056674;28;20082;-76
2021/11/11 02:47:54;;;;;;;36.65;24.50;;;8.90;80.70;;;;;;5057963;28;20037;-75
2021/11/11 02:50:21;;;;;;;34.95;25.38;;;8.90;80.70;;;;;;5060282;28;20700;-75
2021/11/11 02:52:49;;;;;;;39.53;25.05;;;8.90;80.80;;;;;;5055937;28;20132;-76
2021/11/11 02:55:15;;;;;;;37.65;26.50;;;8.80;81.10;;;;;;5081818;27;20122;-76
2021/11/11 02:57:42;;;;;;;37.53;25.30;;;8.90;81.20;;;;;;5080284;28;20142;-78
2021/11/11 03:00:13;;;;;;;38.05;26.33;;;8.90;81.30;;;;;;5082006;28;21795;-75
2021/11/11 03:02:42;;;;;;;35.60;23.52;;;8.90;81.40;;;;;;5079022;28;20617;-78
2021/11/11 03:05:09;;;;;;;35.22;24.15;;;8.90;81.50;;;;;;5079650;28;20032;-74
2021/11/11 03:07:35;;;;;;;32.83;24.20;;;8.90;81.40;;;;;;5076388;28;20177;-75
2021/11/11 03:10:04;;;;;;;36.00;25.05;;;8.90;81.50;;;;;;5072359;28;20501;-78
2021/11/11 03:12:30;;;;;;;33.85;25.35;;;8.80;81.60;;;;;;5082204;28;20390;-75
2021/11/11 03:14:56;;;;;;;37.47;26.42;;;8.80;81.80;;;;;;5073997;28;20037;-75
2021/11/11 03:17:22;;;;;;;35.40;25.67;;;8.90;81.80;;;;;;5083521;28;20040;-74
2021/11/11 03:19:48;;;;;;;36.97;26.30;;;8.90;81.90;;;;;;5079394;28;20105;-75
2021/11/11 03:22:18;;;;;;;34.83;25.10;;;8.90;81.80;;;;;;5074394;27;20059;-75
2021/11/11 03:24:44;;;;;;;36.80;23.33;;;8.90;81.70;;;;;;5078012;28;20556;-75
2021/11/11 03:27:10;;;;;;;38.20;25.88;;;8.90;81.60;;;;;;5082110;28;20032;-74
2021/11/11 03:29:36;;;;;;;35.38;25.35;;;9.00;81.60;;;;;;5083554;28;20396;-76
2021/11/11 03:32:04;;;;;;;36.05;26.13;;;8.90;81.60;;;;;;5083608;28;20043;-75
2021/11/11 03:34:30;;;;;;;35.10;25.48;;;8.90;81.60;;;;;;5059403;28;20113;-74
2021/11/11 03:36:56;;;;;;;36.13;25.05;;;8.90;81.60;;;;;;5064093;28;20039;-75
2021/11/11 03:39:24;;;;;;;34.80;25.58;;;8.90;81.80;;;;;;5063952;28;20043;-76
2021/11/11 03:41:52;;;;;;;36.33;24.40;;;8.90;81.90;;;;;;5076690;28;20035;-75
2021/11/11 03:44:20;;;;;;;35.35;24.55;;;8.80;81.90;;;;;;5068116;28;20353;-74
2021/11/11 03:46:49;;;;;;;36.97;25.38;;;8.90;81.90;;;;;;5060634;28;20510;-74
2021/11/11 03:49:15;;;;;;;37.95;26.77;;;9.00;81.90;;;;;;5059607;28;20119;-75
2021/11/11 03:51:43;;;;;;;35.92;25.88;;;8.90;81.90;;;;;;5069013;28;20043;-74
2021/11/11 03:54:11;;;;;;;37.08;26.45;;;8.90;82.00;;;;;;5062765;28;20052;-74
2021/11/11 03:56:39;;;;;;;35.83;25.27;;;8.90;81.90;;;;;;5066269;28;20039;-74
2021/11/11 03:59:05;;;;;;;37.15;25.83;;;8.90;82.00;;;;;;5072869;27;20040;-76
2021/11/11 04:01:30;;;;;;;38.13;26.48;;;8.80;82.30;;;;;;5076887;28;20052;-76
2021/11/11 04:03:56;;;;;;;37.17;25.77;;;8.80;82.30;;;;;;5064487;28;20063;-76
2021/11/11 04:06:22;;;;;;;37.92;25.17;;;8.80;82.20;;;;;;5065078;28;20052;-74
2021/11/11 04:08:47;;;;;;;38.78;26.15;;;8.80;82.40;;;;;;5065014;28;20101;-74
2021/11/11 04:11:13;;;;;;;35.20;25.05;;;8.80;82.40;;;;;;5065138;28;20074;-74
2021/11/11 04:13:39;;;;;;;40.75;26.83;;;8.80;82.40;;;;;;5060343;28;20491;-75
2021/11/11 04:16:05;;;;;;;39.60;25.40;;;8.90;82.20;;;;;;5061471;28;20040;-75
2021/11/11 04:18:31;;;;;;;40.83;26.88;;;8.90;82.10;;;;;;5063401;28;20062;-76
2021/11/11 04:20:57;;;;;;;43.20;26.00;;;8.80;82.20;;;;;;5067095;28;20476;-74
2021/11/11 04:23:24;;;;;;;39.60;25.63;;;8.90;82.50;;;;;;5062938;28;20047;-78
2021/11/11 04:28:31;;;;;;;36.85;23.45;;;8.80;82.70;;;;;;5070576;28;20044;-77
2021/11/11 04:31:00;;;;;;;41.30;25.67;;;8.80;82.60;;;;;;5063382;28;20511;-75
2021/11/11 04:33:26;;;;;;;40.15;24.95;;;8.80;82.80;;;;;;5092026;27;20032;-76
2021/11/11 04:35:58;;;;;;;33.20;23.38;;;8.80;82.80;;;;;;5086412;28;20032;-74
2021/11/11 04:43:49;;;;;;;38.42;24.70;;;8.80;82.70;;;;;;5086733;28;20044;-75
2021/11/11 04:51:52;;;;;;;39.38;24.60;;;8.90;82.80;;;;;;5081159;28;20040;-74
2021/11/11 05:04:47;;;;;;;39.60;25.83;;;8.90;83.10;;;;;;5065367;28;20021;-76
2021/11/11 05:07:13;;;;;;;34.80;24.48;;;9.00;83.10;;;;;;5063981;28;20048;-73
2021/11/11 05:09:39;;;;;;;35.42;23.75;;;8.90;83.10;;;;;;5063808;28;20032;-74
2021/11/11 05:12:05;;;;;;;40.08;27.60;;;8.90;83.20;;;;;;5065634;28;20519;-74
2021/11/11 05:14:30;;;;;;;38.17;26.10;;;8.90;83.30;;;;;;5065874;28;20093;-74
2021/11/11 05:16:56;;;;;;;37.72;24.77;;;9.00;83.10;;;;;;5077642;28;20032;-74
2021/11/11 05:19:21;;;;;;;40.55;27.17;;;8.90;83.10;;;;;;5084619;28;20036;-75
2021/11/11 05:21:47;;;;;;;39.22;25.80;;;8.90;83.10;;;;;;5084188;28;20039;-75
2021/11/11 05:24:13;;;;;;;38.83;26.65;;;8.90;83.10;;;;;;5082068;28;20372;-76
2021/11/11 05:26:40;;;;;;;40.08;26.80;;;8.90;83.10;;;;;;5076017;28;20040;-75
2021/11/11 05:29:06;;;;;;;42.63;27.40;;;8.90;83.40;;;;;;5083896;28;20040;-77
2021/11/11 05:31:32;;;;;;;39.28;26.25;;;8.80;83.40;;;;;;5070030;28;20047;-76
2021/11/11 05:33:57;;;;;;;38.53;26.55;;;8.90;83.40;;;;;;5068940;28;20020;-74
2021/11/11 05:36:23;;;;;;;37.40;26.30;;;8.80;83.40;;;;;;5064840;28;20040;-75
2021/11/11 05:38:49;;;;;;;37.25;25.60;;;8.80;83.20;;;;;;5067574;28;20036;-73
2021/11/11 05:41:15;;;;;;;37.88;27.27;;;8.80;83.30;;;;;;5071843;27;20617;-74
2021/11/11 05:43:41;;;;;;;42.63;26.92;;;8.90;83.40;;;;;;5085912;28;20024;-74
2021/11/11 05:46:06;;;;;;;37.50;26.10;;;8.90;83.50;;;;;;5080025;28;20036;-75
2021/11/11 05:48:32;;;;;;;38.13;26.92;;;8.80;83.60;;;;;;5086152;28;20043;-77
2021/11/11 05:50:58;;;;;;;41.80;29.27;;;8.80;83.50;;;;;;5082913;28;20059;-74
2021/11/11 05:53:24;;;;;;;38.75;28.17;;;8.80;83.50;;;;;;5085031;28;20035;-74
2021/11/11 05:55:51;;;;;;;40.20;27.38;;;8.80;83.60;;;;;;5086671;28;20077;-74
2021/11/11 05:58:17;;;;;;;36.35;26.58;;;8.80;83.80;;;;;;5061086;28;20561;-74
2021/11/11 06:00:43;;;;;;;39.03;26.55;;;8.70;83.80;;;;;;5061151;28;20120;-78
2021/11/11 06:03:08;;;;;;;44.42;28.15;;;8.70;83.90;;;;;;5056531;28;20036;-76
2021/11/11 06:05:34;;;;;;;39.72;28.35;;;8.70;84.00;;;;;;5066127;28;20024;-74
2021/11/11 06:08:00;;;;;;;38.67;27.55;;;8.70;84.10;;;;;;5070244;28;20078;-79
2021/11/11 06:10:25;;;;;;;41.90;28.45;;;8.80;84.10;;;;;;5083936;28;20036;-73
2021/11/11 06:12:51;;;;;;;37.97;28.35;;;8.70;84.10;;;;;;5084824;28;20046;-74
2021/11/11 06:15:17;;;;;;;38.80;28.75;;;8.70;84.10;;;;;;5083627;27;20033;-80
2021/11/11 06:17:44;;;;;;;38.22;29.13;;;8.80;84.20;;;;;;5077926;27;20032;-75
2021/11/11 06:20:19;;;;;;;43.10;28.77;;;8.70;84.20;;;;;;5077312;28;20044;-74
2021/11/11 06:22:49;;;;;;;40.00;27.52;;;8.80;84.30;;;;;;5064198;28;20372;-75
2021/11/11 06:25:15;;;;;;;43.25;29.40;;;8.70;84.20;;;;;;5062411;28;20048;-74
2021/11/11 06:27:41;;;;;;;45.20;29.70;;;8.70;84.40;;;;;;5060558;28;20033;-74
2021/11/11 06:30:07;;;;;;;40.08;29.48;;;8.70;84.40;;;;;;5065494;28;20373;-74
2021/11/11 06:32:34;;;;;;;44.55;28.52;;;8.70;84.40;;;;;;5065544;28;20082;-76
2021/11/11 06:35:00;;;;;;;40.38;28.40;;;8.70;84.60;;;;;;5061916;28;20055;-74
2021/11/11 06:37:26;;;;;;;38.67;29.13;;;8.70;84.60;;;;;;5058500;28;20028;-76
2021/11/11 06:39:51;;;;;;;42.20;30.05;;;8.70;84.40;;;;;;5058451;28;20045;-77
2021/11/11 06:42:17;;;;;;;40.17;29.05;;;8.70;84.50;;;;;;5069254;28;20600;-74
2021/11/11 06:44:46;;;;;;;40.88;29.25;;;8.70;84.50;;;;;;5084833;28;20411;-74
2021/11/11 06:47:12;;;;;;;41.85;28.40;;;8.80;84.40;;;;;;5074576;27;20495;-73
2021/11/11 06:49:38;;;;;;;38.35;27.27;;;8.80;84.50;;;;;;5084895;28;20036;-75
2021/11/11 06:52:04;;;;;;;41.38;29.25;;;8.80;84.40;;;;;;5066620;27;20101;-75
2021/11/11 06:54:33;;;;;;;40.35;27.80;;;8.80;84.40;;;;;;5080567;28;20043;-74
2021/11/11 06:56:59;;;;;;;42.33;29.13;;;8.90;84.50;;;;;;5084048;28;20115;-74
2021/11/11 06:59:25;;;;;;;38.28;28.77;;;8.90;84.50;;;;;;5079046;28;20570;-76
2021/11/11 07:01:50;;;;;;;44.05;29.60;;;8.90;84.50;;;;;;5085653;28;20040;-73
2021/11/11 07:04:16;;;;;;;40.47;27.73;;;8.90;84.50;;;;;;5084898;28;20036;-74
2021/11/11 07:06:42;;;;;;;42.50;30.25;;;8.80;84.50;;;;;;5083851;28;20130;-73
2021/11/11 07:09:07;;;;;;;38.97;28.80;;;8.90;84.50;;;;;;5083942;28;20119;-73
2021/11/11 07:11:33;;;;;;;41.55;30.02;;;8.80;84.60;;;;;;5081809;28;20472;-74
2021/11/11 07:13:59;;;;;;;42.83;28.83;;;8.80;84.70;;;;;;5079235;28;20121;-75
2021/11/11 07:16:25;;;;;;;45.50;30.77;;;8.80;84.70;;;;;;5063494;28;20029;-77
2021/11/11 07:18:51;;;;;;;40.35;27.73;;;8.80;84.60;;;;;;5063796;28;20438;-76
2021/11/11 07:21:16;;;;;;;37.55;28.70;;;8.80;84.80;;;;;;5074894;27;20029;-73
2021/11/11 07:23:43;;;;;;;44.83;30.33;;;8.80;84.80;;;;;;5080433;28;20459;-75
2021/11/11 07:26:09;;;;;;;40.72;29.95;;;8.90;84.90;;;;;;5078756;28;20468;-74
2021/11/11 07:28:35;;;;;;;40.97;30.08;;;8.90;84.80;;;;;;5062836;28;20043;-76
2021/11/11 07:31:00;;;;;;;43.42;29.13;;;8.90;84.90;;;;;;5058573;28;20082;-74
2021/11/11 07:33:26;;;;;;;41.75;30.55;;;9.00;84.70;;;;;;5067256;28;20040;-79
2021/11/11 07:35:52;;;;;;;41.05;30.05;;;8.90;84.70;;;;;;5064844;28;20064;-80
2021/11/11 07:38:18;;;;;;;43.75;31.52;;;9.00;84.70;;;;;;5066460;28;20373;-76
2021/11/11 07:40:44;;;;;;;42.50;29.58;;;9.00;84.70;;;;;;5063244;28;20120;-74
2021/11/11 07:43:10;;;;;;;44.33;31.92;;;8.90;84.80;;;;;;5064913;28;20120;-74
2021/11/11 07:45:36;;;;;;;40.10;30.20;;;8.90;84.80;;;;;;5064659;28;20119;-74
2021/11/11 07:48:03;;;;;;;43.60;32.50;;;9.00;84.80;;;;;;5064428;28;20094;-75
2021/11/11 07:50:30;;;;;;;40.17;29.30;;;9.10;84.60;;;;;;5080715;28;20036;-82
2021/11/11 07:52:59;;;;;;;44.25;32.03;;;9.10;84.50;;;;;;5084509;28;20032;-75
2021/11/11 07:55:25;;;;;;;40.10;28.77;;;9.10;84.40;;;;;;5083748;28;20062;-75
2021/11/11 07:57:51;;;;;;;44.22;30.75;;;9.10;84.30;;;;;;5070652;28;20029;-75
2021/11/11 08:00:19;;;;;;;42.05;30.00;;;9.20;84.20;;;;;;5060874;28;20049;-75
2021/11/11 08:02:45;;;;;;;41.97;30.15;;;9.20;84.20;;;;;;5073107;28;20063;-75
2021/11/11 08:05:17;;;;;;;40.90;31.00;;;9.20;84.10;;;;;;5077586;28;20053;-76
2021/11/11 08:07:44;;;;;;;44.38;30.63;;;9.30;84.20;;;;;;5090212;28;20020;-75
2021/11/11 08:10:10;;;;;;;43.45;30.42;;;9.40;83.90;;;;;;5082017;28;20089;-75
2021/11/11 08:12:36;;;;;;;42.70;30.08;;;9.40;83.90;;;;;;5078374;28;20034;-74
2021/11/11 08:15:03;;;;;;;39.50;28.95;;;9.40;83.60;;;;;;5079632;28;20039;-76
2021/11/11 08:17:29;;;;;;;45.85;32.17;;;9.40;83.40;;;;;;5081665;27;20060;-74
2021/11/11 08:19:55;;;;;;;43.83;31.05;;;9.40;83.50;;;;;;5088423;28;20094;-75
2021/11/11 08:22:25;;;;;;;38.20;30.00;;;9.60;83.20;;;;;;5084328;28;20040;-75
2021/11/11 08:24:53;;;;;;;39.65;29.17;;;9.60;83.10;;;;;;5081796;28;20392;-75
2021/11/11 08:27:21;;;;;;;45.08;31.50;;;9.60;83.00;;;;;;5074206;28;20132;-78
2021/11/11 08:29:49;;;;;;;43.75;31.45;;;9.60;82.80;;;;;;5083150;27;20582;-75
2021/11/11 08:32:15;;;;;;;43.55;29.73;;;9.70;82.90;;;;;;5084512;28;20155;-75
2021/11/11 08:34:42;;;;;;;41.58;29.65;;;9.70;82.50;;;;;;5084729;28;20472;-75
2021/11/11 08:37:09;;;;;;;39.65;29.15;;;9.70;82.60;;;;;;5083941;28;20028;-75
2021/11/11 08:39:36;;;;;;;42.22;29.55;;;9.80;82.60;;;;;;5081503;28;20058;-75
2021/11/11 08:42:03;;;;;;;42.08;30.38;;;9.90;82.50;;;;;;5073262;27;20043;-80
2021/11/11 08:44:29;;;;;;;39.35;30.42;;;9.90;82.10;;;;;;5071800;28;20040;-74
2021/11/11 08:46:55;;;;;;;38.00;28.60;;;10.00;82.30;;;;;;5084707;28;20090;-74
2021/11/11 08:49:21;;;;;;;37.65;27.65;;;10.10;81.60;;;;;;5080632;28;20212;-72
2021/11/11 08:51:49;;;;;;;39.03;29.08;;;10.00;81.90;;;;;;5067216;28;20033;-73
2021/11/11 08:54:16;;;;;;;40.30;29.27;;;10.10;81.60;;;;;;5062735;28;20033;-72
2021/11/11 08:56:48;;;;;;;42.28;28.52;;;10.10;81.60;;;;;;5060346;28;20189;-71
2021/11/11 08:59:16;;;;;;;37.72;28.02;;;10.10;81.50;;;;;;5060401;28;20586;-71
2021/11/11 09:01:42;;;;;;;38.10;28.17;;;10.30;81.60;;;;;;5060172;28;20055;-78
2021/11/11 09:04:08;;;;;;;39.75;28.58;;;10.40;80.90;;;;;;5059142;28;20036;-73
2021/11/11 09:06:33;;;;;;;34.53;27.02;;;10.50;81.10;;;;;;5060544;28;20033;-71
2021/11/11 09:08:59;;;;;;;39.17;28.15;;;10.60;80.90;;;;;;5066882;28;20045;-73
2021/11/11 09:11:25;;;;;;;41.95;28.58;;;10.60;80.70;;;;;;5063788;28;20097;-72
2021/11/11 09:13:50;;;;;;;38.03;26.05;;;10.70;80.40;;;;;;5065252;28;20115;-71
2021/11/11 09:16:16;;;;;;;38.30;27.45;;;10.70;79.70;;;;;;5064502;28;20060;-71
2021/11/11 09:18:42;;;;;;;40.55;28.02;;;10.70;80.10;;;;;;5064254;28;20020;-73
2021/11/11 09:21:11;;;;;;;38.08;27.73;;;10.60;79.90;;;;;;5078853;28;20028;-71
2021/11/11 09:23:38;;;;;;;35.03;26.08;;;10.70;79.90;;;;;;5077176;28;20111;-70
2021/11/11 09:26:05;;;;;;;40.10;27.27;;;10.60;80.10;;;;;;5083545;27;20459;-71
2021/11/11 09:28:32;;;;;;;35.55;26.27;;;10.80;79.80;;;;;;5080478;28;20036;-70
2021/11/11 09:30:59;;;;;;;36.25;26.58;;;10.90;80.00;;;;;;5082071;28;20038;-72
2021/11/11 09:33:26;;;;;;;35.53;26.73;;;11.00;79.50;;;;;;5084514;28;20041;-72
2021/11/11 09:35:53;;;;;;;34.83;25.52;;;11.00;79.40;;;;;;5073312;27;20037;-71
2021/11/11 09:38:23;;;;;;;34.08;25.20;;;11.10;79.00;;;;;;5066396;28;20043;-71
2021/11/11 09:40:49;;;;;;;34.90;24.75;;;11.00;78.90;;;;;;5061521;28;20032;-72
2021/11/11 09:43:15;;;;;;;36.72;25.85;;;11.10;78.90;;;;;;5057100;28;20467;-71
2021/11/11 09:45:45;;;;;;;34.92;25.48;;;11.00;79.50;;;;;;5060889;28;20468;-70
2021/11/11 09:48:13;;;;;;;31.35;24.30;;;11.10;79.30;;;;;;5058520;28;20044;-72
2021/11/11 09:50:38;;;;;;;36.22;25.08;;;11.10;79.00;;;;;;5062728;28;20172;-71
2021/11/11 09:53:09;;;;;;;33.05;24.80;;;11.10;79.10;;;;;;5065993;28;20494;-71
2021/11/11 09:58:34;;;;;;;31.02;25.17;;;11.10;78.90;;;;;;5058756;28;20078;-73
2021/11/11 10:01:04;;;;;;;31.67;23.13;;;11.10;78.40;;;;;;5063135;28;20036;-72
2021/11/11 10:03:30;;;;;;;36.28;22.83;;;11.30;78.70;;;;;;5060084;28;20028;-72
2021/11/11 10:05:56;;;;;;;31.55;23.73;;;11.50;77.70;;;;;;5063199;28;20056;-75
2021/11/11 10:08:40;;;;;;;30.85;22.35;;;11.50;77.70;;;;;;5074817;28;20081;-72
2021/11/11 10:11:24;;;;;;;31.83;23.90;;;11.60;77.50;;;;;;5083055;28;20032;-74
2021/11/11 10:13:59;;;;;;;35.90;25.85;;;11.50;77.10;;;;;;5080524;28;20093;-71
2021/11/11 10:16:25;;;;;;;57.50;42.63;;;11.60;76.50;;;;;;5063506;28;20456;-71
2021/11/11 10:18:55;;;;;;;55.58;41.53;;;11.80;77.00;;;;;;5072540;28;20039;-72
2021/11/11 10:21:43;;;;;;;53.58;45.38;;;11.70;76.90;;;;;;5074745;28;20032;-73
2021/11/11 10:24:31;;;;;;;50.75;44.33;;;11.80;76.60;;;;;;5080282;28;20044;-78
2021/11/11 10:27:01;;;;;;;60.47;49.20;;;11.80;76.60;;;;;;5083129;28;20472;-72
2021/11/11 10:29:36;;;;;;;67.35;54.00;;;11.90;76.50;;;;;;5082772;28;20058;-73
2021/11/11 10:32:09;;;;;;;122.93;94.10;;;11.90;76.40;;;;;;5079947;28;20396;-72
2021/11/11 10:34:43;;;;;;;74.63;52.10;;;11.90;75.90;;;;;;5065612;28;20036;-72
2021/11/11 10:37:09;;;;;;;59.33;42.28;;;11.80;76.30;;;;;;5073747;28;20025;-79
2021/11/11 10:39:39;;;;;;;41.65;31.20;;;11.90;76.20;;;;;;5049042;28;20062;-74
2021/11/11 10:42:15;;;;;;;36.70;27.65;;;11.90;76.10;;;;;;5058891;28;20487;-71
2021/11/11 10:44:41;;;;;;;35.63;25.25;;;11.90;76.30;;;;;;5067306;28;20085;-72
2021/11/11 10:47:10;;;;;;;34.50;24.52;;;11.80;76.10;;;;;;5064109;28;20482;-72
2021/11/11 10:49:41;;;;;;;33.55;24.77;;;11.90;76.80;;;;;;5066135;28;20059;-72
2021/11/11 10:52:27;;;;;;;30.75;23.30;;;12.00;77.00;;;;;;5065296;28;20036;-72
2021/11/11 10:55:01;;;;;;;28.83;22.13;;;12.00;76.30;;;;;;5066641;28;20630;-72
2021/11/11 10:57:46;;;;;;;30.70;23.02;;;12.00;76.10;;;;;;5066783;28;20044;-73
2021/11/11 11:00:21;;;;;;;32.33;24.10;;;11.90;76.20;;;;;;5062737;28;20059;-72
2021/11/11 11:02:55;;;;;;;35.63;24.50;;;11.90;76.10;;;;;;5063822;28;20034;-72
2021/11/11 11:05:22;;;;;;;;;;;11.80;76.10;;;;;;5064318;28;20116;-72
2021/11/11 11:08:00;;;;;;;30.98;22.98;;;11.70;76.70;;;;;;5061486;28;19920;-73
2021/11/11 11:10:27;;;;;;;31.00;22.55;;;11.90;76.80;;;;;;5082760;28;20036;-73
2021/11/11 11:12:55;;;;;;;29.08;21.98;;;11.90;77.20;;;;;;5084292;28;20055;-74
2021/11/11 11:15:36;;;;;;;29.25;21.77;;;12.00;77.20;;;;;;5083670;28;20043;-77
2021/11/11 11:18:03;;;;;;;27.33;20.48;;;12.10;76.80;;;;;;5081859;28;20039;-72
2021/11/11 11:20:28;;;;;;;29.23;22.23;;;12.00;76.50;;;;;;5082780;28;20051;-71
2021/11/11 11:23:32;;;;;;;31.52;22.02;;;12.10;76.90;;;;;;5085824;28;20040;-72
2021/11/11 11:26:08;;;;;;;31.67;21.60;;;12.10;76.80;;;;;;5045227;28;20431;-72
2021/11/11 11:28:34;;;;;;;28.88;22.58;;;12.10;76.60;;;;;;5084976;27;20060;-72
2021/11/11 11:31:03;;;;;;;26.90;20.00;;;12.20;76.40;;;;;;5084489;28;20364;-73
2021/11/11 11:33:41;;;;;;;30.83;21.65;;;12.10;76.50;;;;;;5083433;28;20032;-79
2021/11/11 11:36:07;;;;;;;31.25;21.27;;;12.20;76.60;;;;;;5080683;28;20130;-72
2021/11/11 11:38:38;;;;;;;29.38;20.23;;;12.30;76.00;;;;;;5068592;28;20614;-71
2021/11/11 11:41:22;;;;;;;35.60;24.00;;;12.30;76.50;;;;;;5063012;28;20484;-73
2021/11/11 11:43:48;;;;;;;33.13;22.13;;;12.40;76.30;;;;;;5059363;28;20060;-72
2021/11/11 11:46:17;;;;;;;30.73;20.85;;;12.40;75.70;;;;;;5061194;28;20115;-72
2021/11/11 11:48:45;;;;;;;30.35;22.27;;;12.40;75.60;;;;;;5072505;28;20043;-71
2021/11/11 11:51:12;;;;;;;27.70;20.88;;;12.40;76.40;;;;;;5076935;27;20036;-73
2021/11/11 11:54:27;;;;;;;30.52;21.63;;;12.50;76.10;;;;;;5082170;28;20030;-72
2021/11/11 11:56:28;;;;;;;28.23;20.13;;;12.60;75.90;;;;;;5056973;28;20033;-72
2021/11/11 12:39:59;;;;;;;25.17;17.50;;;12.90;74.10;;;;;;5072735;28;20043;-76
2021/11/11 12:42:56;;;;;;;22.85;18.27;;;13.00;73.60;;;;;;5078226;27;20093;-72
2021/11/11 12:45:31;;;;;;;25.95;17.52;;;13.00;73.80;;;;;;5079276;28;20135;-71
2021/11/11 12:48:05;;;;;;;21.73;16.90;;;13.00;73.90;;;;;;5063111;28;20055;-72
2021/11/11 12:50:44;;;;;;;24.10;17.70;;;13.00;74.30;;;;;;5069285;28;20048;-72
2021/11/11 12:53:13;;;;;;;25.08;17.65;;;13.00;74.40;;;;;;5063258;28;20044;-72
2021/11/11 12:56:35;;;;;;;23.08;16.80;;;13.00;74.00;;;;;;5062338;28;20072;-77
2021/11/11 12:59:05;;;;;;;20.77;15.57;;;13.00;73.70;;;;;;5057106;28;20044;-73
2021/11/11 13:01:51;;;;;;;20.55;16.23;;;13.00;74.10;;;;;;5068161;28;20028;-74
2021/11/11 13:04:18;;;;;;;22.25;16.95;;;13.00;73.90;;;;;;5070480;28;20036;-73
2021/11/11 13:06:45;;;;;;;22.75;16.85;;;13.10;74.00;;;;;;5082430;28;20124;-71
2021/11/11 13:09:26;;;;;;;23.23;16.00;;;13.10;74.20;;;;;;5059934;28;20037;-77
2021/11/11 13:12:12;;;;;;;19.48;15.70;;;13.10;74.60;;;;;;5058849;28;20043;-73
2021/11/11 13:14:52;;;;;;;19.98;16.05;;;13.10;74.60;;;;;;5057314;28;20119;-71
2021/11/11 13:17:19;;;;;;;22.27;17.00;;;13.10;74.50;;;;;;5070326;28;20437;-71
2021/11/11 13:19:48;;;;;;;22.33;16.65;;;13.10;74.40;;;;;;5060984;28;20036;-71
2021/11/11 13:22:38;;;;;;;23.63;16.88;;;13.10;74.70;;;;;;5058918;28;20036;-73
2021/11/11 15:17:32;;;;;;;24.02;17.02;;;12.10;80.20;;;;;;5078761;28;20047;-72
2021/11/11 16:02:31;;;;;;;30.95;24.00;;;11.60;81.80;;;;;;5081441;28;20051;-70
2021/11/11 16:21:47;;;;;;;35.30;28.63;;;11.40;82.70;;;;;;5070105;28;20047;-68
2021/11/11 16:26:55;;;;;;;39.15;29.80;;;11.30;82.80;;;;;;5084889;28;20043;-71
2021/11/11 16:29:23;;;;;;;42.50;32.17;;;11.30;82.90;;;;;;5081371;28;20063;-71
2021/11/11 16:31:49;;;;;;;42.67;30.90;;;11.30;82.80;;;;;;5072073;28;20379;-71
2021/11/11 16:34:15;;;;;;;38.28;30.50;;;11.20;82.80;;;;;;5064364;28;20043;-71
2021/11/11 16:36:41;;;;;;;41.03;31.17;;;11.30;82.80;;;;;;5088612;28;20122;-75
2021/11/11 16:39:09;;;;;;;38.40;29.33;;;11.20;82.70;;;;;;5078280;28;20039;-74
2021/11/11 16:41:36;;;;;;;40.33;30.77;;;11.10;82.80;;;;;;5080432;28;20115;-73